sensor_id;sensor_type;location;lat;lon;timestamp;temperature;humidity
51950;DHT22;37974;53.218;6.640;2023-08-31T00:00:08;11.40;99.90
51950;DHT22;37974;53.218;6.640;2023-08-31T00:02:35;11.30;99.90
51950;DHT22;37974;53.218;6.640;2023-08-31T00:05:01;11.30;99.90
51950;DHT22;37974;53.218;6.640;2023-08-31T00:07:27;11.30;99.90
51950;DHT22;37974;53.218;6.640;2023-08-31T00:09:52;11.30;99.90
51950;DHT22;37974;53.218;6.640;2023-08-31T00:12:19;11.30;99.90
51950;DHT22;37974;53.218;6.640;2023-08-31T00:14:44;11.30;99.90
51950;DHT22;37974;53.218;6.640;2023-08-31T00:17:10;11.30;99.90
51950;DHT22;37974;53.218;6.640;2023-08-31T00:19:36;11.30;99.90
51950;DHT22;37974;53.218;6.640;2023-08-31T00:22:01;11.30;99.90
51950;DHT22;37974;53.218;6.640;2023-08-31T00:24:27;11.30;99.90
51950;DHT22;37974;53.218;6.640;2023-08-31T00:26:57;11.30;99.90
51950;DHT22;37974;53.218;6.640;2023-08-31T00:29:23;11.30;99.90
51950;DHT22;37974;53.218;6.640;2023-08-31T00:31:51;11.30;99.90
51950;DHT22;37974;53.218;6.640;2023-08-31T00:34:19;11.40;99.90
51950;DHT22;37974;53.218;6.640;2023-08-31T00:36:45;11.40;99.90
51950;DHT22;37974;53.218;6.640;2023-08-31T00:39:10;11.40;99.90
51950;DHT22;37974;53.218;6.640;2023-08-31T00:41:40;11.30;99.90
51950;DHT22;37974;53.218;6.640;2023-08-31T00:44:06;11.20;99.90
51950;DHT22;37974;53.218;6.640;2023-08-31T00:46:32;11.30;99.90
51950;DHT22;37974;53.218;6.640;2023-08-31T00:48:58;11.30;99.90
51950;DHT22;37974;53.218;6.640;2023-08-31T00:51:24;11.20;99.90
51950;DHT22;37974;53.218;6.640;2023-08-31T00:53:53;11.20;99.90
51950;DHT22;37974;53.218;6.640;2023-08-31T00:56:19;11.20;99.90
51950;DHT22;37974;53.218;6.640;2023-08-31T00:58:45;11.20;99.90
51950;DHT22;37974;53.218;6.640;2023-08-31T01:01:25;11.20;99.90
51950;DHT22;37974;53.218;6.640;2023-08-31T01:07:09;11.20;99.90
51950;DHT22;37974;53.218;6.640;2023-08-31T01:12:21;11.10;99.90
51950;DHT22;37974;53.218;6.640;2023-08-31T01:14:57;11.10;99.90
51950;DHT22;37974;53.218;6.640;2023-08-31T01:17:28;11.10;99.90
51950;DHT22;37974;53.218;6.640;2023-08-31T01:19:57;11.10;99.90
51950;DHT22;37974;53.218;6.640;2023-08-31T01:22:33;11.10;99.90
51950;DHT22;37974;53.218;6.640;2023-08-31T01:25:03;11.00;99.90
51950;DHT22;37974;53.218;6.640;2023-08-31T01:27:34;11.00;99.90
51950;DHT22;37974;53.218;6.640;2023-08-31T01:30:00;11.00;99.90
51950;DHT22;37974;53.218;6.640;2023-08-31T01:32:26;11.00;99.90
51950;DHT22;37974;53.218;6.640;2023-08-31T01:34:52;10.90;99.90
51950;DHT22;37974;53.218;6.640;2023-08-31T01:40:00;10.90;99.90
51950;DHT22;37974;53.218;6.640;2023-08-31T01:42:29;10.80;99.90
51950;DHT22;37974;53.218;6.640;2023-08-31T01:44:57;10.80;99.90
51950;DHT22;37974;53.218;6.640;2023-08-31T01:47:26;10.80;99.90
51950;DHT22;37974;53.218;6.640;2023-08-31T01:49:52;10.80;99.90
51950;DHT22;37974;53.218;6.640;2023-08-31T01:52:18;10.70;99.90
51950;DHT22;37974;53.218;6.640;2023-08-31T01:54:44;10.70;99.90
51950;DHT22;37974;53.218;6.640;2023-08-31T01:57:09;10.80;99.90
51950;DHT22;37974;53.218;6.640;2023-08-31T01:59:35;10.80;99.90
51950;DHT22;37974;53.218;6.640;2023-08-31T02:02:01;10.80;99.90
51950;DHT22;37974;53.218;6.640;2023-08-31T02:04:27;10.70;99.90
51950;DHT22;37974;53.218;6.640;2023-08-31T02:06:53;10.70;99.90
51950;DHT22;37974;53.218;6.640;2023-08-31T02:09:19;10.70;99.90
51950;DHT22;37974;53.218;6.640;2023-08-31T02:11:45;10.60;99.90
51950;DHT22;37974;53.218;6.640;2023-08-31T02:14:11;10.60;99.90
51950;DHT22;37974;53.218;6.640;2023-08-31T02:16:36;10.60;99.90
51950;DHT22;37974;53.218;6.640;2023-08-31T02:19:02;10.60;99.90
51950;DHT22;37974;53.218;6.640;2023-08-31T02:21:28;10.60;99.90
51950;DHT22;37974;53.218;6.640;2023-08-31T02:23:54;10.60;99.90
51950;DHT22;37974;53.218;6.640;2023-08-31T02:26:21;10.60;99.90
51950;DHT22;37974;53.218;6.640;2023-08-31T02:28:47;10.60;99.90
51950;DHT22;37974;53.218;6.640;2023-08-31T02:31:13;10.60;99.90
51950;DHT22;37974;53.218;6.640;2023-08-31T02:33:39;10.60;99.90
51950;DHT22;37974;53.218;6.640;2023-08-31T02:36:05;10.60;99.90
51950;DHT22;37974;53.218;6.640;2023-08-31T02:38:31;10.60;99.90
51950;DHT22;37974;53.218;6.640;2023-08-31T02:40:57;10.60;99.90
51950;DHT22;37974;53.218;6.640;2023-08-31T02:43:23;10.50;99.90
51950;DHT22;37974;53.218;6.640;2023-08-31T02:45:50;10.50;99.90
51950;DHT22;37974;53.218;6.640;2023-08-31T02:48:15;10.50;99.90
51950;DHT22;37974;53.218;6.640;2023-08-31T02:50:41;10.50;99.90
51950;DHT22;37974;53.218;6.640;2023-08-31T02:53:07;10.60;99.90
51950;DHT22;37974;53.218;6.640;2023-08-31T02:55:33;10.60;99.90
51950;DHT22;37974;53.218;6.640;2023-08-31T02:57:59;10.60;99.90
51950;DHT22;37974;53.218;6.640;2023-08-31T03:00:25;10.60;99.90
51950;DHT22;37974;53.218;6.640;2023-08-31T03:02:51;10.60;99.90
51950;DHT22;37974;53.218;6.640;2023-08-31T03:05:19;10.50;99.90
51950;DHT22;37974;53.218;6.640;2023-08-31T03:07:44;10.60;99.90
51950;DHT22;37974;53.218;6.640;2023-08-31T03:10:11;10.50;99.90
51950;DHT22;37974;53.218;6.640;2023-08-31T03:12:37;10.60;99.90
51950;DHT22;37974;53.218;6.640;2023-08-31T03:15:04;10.60;99.90
51950;DHT22;37974;53.218;6.640;2023-08-31T03:17:31;10.60;99.90
51950;DHT22;37974;53.218;6.640;2023-08-31T03:19:57;10.60;99.90
51950;DHT22;37974;53.218;6.640;2023-08-31T03:22:22;10.80;99.90
51950;DHT22;37974;53.218;6.640;2023-08-31T03:24:48;10.60;99.90
51950;DHT22;37974;53.218;6.640;2023-08-31T03:27:14;10.50;99.90
51950;DHT22;37974;53.218;6.640;2023-08-31T03:29:41;10.60;99.90
51950;DHT22;37974;53.218;6.640;2023-08-31T03:32:07;10.50;99.90
51950;DHT22;37974;53.218;6.640;2023-08-31T03:34:33;10.50;99.90
51950;DHT22;37974;53.218;6.640;2023-08-31T03:36:59;10.50;99.90
51950;DHT22;37974;53.218;6.640;2023-08-31T03:39:25;10.50;99.90
51950;DHT22;37974;53.218;6.640;2023-08-31T03:41:51;10.40;99.90
51950;DHT22;37974;53.218;6.640;2023-08-31T03:44:16;10.50;99.90
51950;DHT22;37974;53.218;6.640;2023-08-31T03:46:43;10.60;99.90
51950;DHT22;37974;53.218;6.640;2023-08-31T03:49:08;10.50;99.90
51950;DHT22;37974;53.218;6.640;2023-08-31T03:51:34;10.60;99.90
51950;DHT22;37974;53.218;6.640;2023-08-31T03:54:00;10.40;99.90
51950;DHT22;37974;53.218;6.640;2023-08-31T03:56:26;10.50;99.90
51950;DHT22;37974;53.218;6.640;2023-08-31T03:58:52;10.50;99.90
51950;DHT22;37974;53.218;6.640;2023-08-31T04:01:18;10.50;99.90
51950;DHT22;37974;53.218;6.640;2023-08-31T04:03:44;10.50;99.90
51950;DHT22;37974;53.218;6.640;2023-08-31T04:06:10;10.50;99.90
51950;DHT22;37974;53.218;6.640;2023-08-31T04:08:36;10.50;99.90
51950;DHT22;37974;53.218;6.640;2023-08-31T04:11:01;10.50;99.90
51950;DHT22;37974;53.218;6.640;2023-08-31T04:13:28;10.50;99.90
51950;DHT22;37974;53.218;6.640;2023-08-31T04:15:54;10.50;99.90
51950;DHT22;37974;53.218;6.640;2023-08-31T04:18:20;10.50;99.90
51950;DHT22;37974;53.218;6.640;2023-08-31T04:20:49;10.60;99.90
51950;DHT22;37974;53.218;6.640;2023-08-31T04:23:16;10.60;99.90
51950;DHT22;37974;53.218;6.640;2023-08-31T04:25:43;10.60;99.90
51950;DHT22;37974;53.218;6.640;2023-08-31T04:28:08;10.60;99.90
51950;DHT22;37974;53.218;6.640;2023-08-31T04:30:34;10.70;99.90
51950;DHT22;37974;53.218;6.640;2023-08-31T04:33:00;10.70;99.90
51950;DHT22;37974;53.218;6.640;2023-08-31T04:35:26;10.70;99.90
51950;DHT22;37974;53.218;6.640;2023-08-31T04:37:52;10.70;99.90
51950;DHT22;37974;53.218;6.640;2023-08-31T04:40:18;10.80;99.90
51950;DHT22;37974;53.218;6.640;2023-08-31T04:42:44;10.70;99.90
51950;DHT22;37974;53.218;6.640;2023-08-31T04:45:09;10.70;99.90
51950;DHT22;37974;53.218;6.640;2023-08-31T04:47:37;10.70;99.90
51950;DHT22;37974;53.218;6.640;2023-08-31T04:50:03;10.70;99.90
51950;DHT22;37974;53.218;6.640;2023-08-31T04:52:29;10.70;99.90
51950;DHT22;37974;53.218;6.640;2023-08-31T04:54:54;10.70;99.90
51950;DHT22;37974;53.218;6.640;2023-08-31T04:57:20;10.70;99.90
51950;DHT22;37974;53.218;6.640;2023-08-31T04:59:46;10.70;99.90
51950;DHT22;37974;53.218;6.640;2023-08-31T05:02:12;10.70;99.90
51950;DHT22;37974;53.218;6.640;2023-08-31T05:04:37;10.70;99.90
51950;DHT22;37974;53.218;6.640;2023-08-31T05:07:03;10.70;99.90
51950;DHT22;37974;53.218;6.640;2023-08-31T05:09:29;10.70;99.90
51950;DHT22;37974;53.218;6.640;2023-08-31T05:11:58;10.70;99.90
51950;DHT22;37974;53.218;6.640;2023-08-31T05:14:24;10.70;99.90
51950;DHT22;37974;53.218;6.640;2023-08-31T05:16:50;10.80;99.90
51950;DHT22;37974;53.218;6.640;2023-08-31T05:19:16;10.70;99.90
51950;DHT22;37974;53.218;6.640;2023-08-31T05:21:41;10.70;99.90
51950;DHT22;37974;53.218;6.640;2023-08-31T05:24:07;10.80;99.90
51950;DHT22;37974;53.218;6.640;2023-08-31T05:26:33;10.80;99.90
51950;DHT22;37974;53.218;6.640;2023-08-31T05:28:59;10.80;99.90
51950;DHT22;37974;53.218;6.640;2023-08-31T05:31:25;10.70;99.90
51950;DHT22;37974;53.218;6.640;2023-08-31T05:33:50;10.80;99.90
51950;DHT22;37974;53.218;6.640;2023-08-31T05:36:16;10.90;99.90
51950;DHT22;37974;53.218;6.640;2023-08-31T05:38:42;10.90;99.90
51950;DHT22;37974;53.218;6.640;2023-08-31T05:41:08;10.90;99.90
51950;DHT22;37974;53.218;6.640;2023-08-31T05:43:35;11.00;99.90
51950;DHT22;37974;53.218;6.640;2023-08-31T05:46:02;11.00;99.90
51950;DHT22;37974;53.218;6.640;2023-08-31T05:48:28;11.10;99.90
51950;DHT22;37974;53.218;6.640;2023-08-31T05:50:54;11.20;99.90
51950;DHT22;37974;53.218;6.640;2023-08-31T05:53:20;11.20;99.90
51950;DHT22;37974;53.218;6.640;2023-08-31T05:55:47;11.30;99.90
51950;DHT22;37974;53.218;6.640;2023-08-31T05:58:12;11.40;99.90
51950;DHT22;37974;53.218;6.640;2023-08-31T06:00:38;11.50;99.90
51950;DHT22;37974;53.218;6.640;2023-08-31T06:03:04;11.60;99.90
51950;DHT22;37974;53.218;6.640;2023-08-31T06:05:32;11.70;99.90
51950;DHT22;37974;53.218;6.640;2023-08-31T06:07:58;11.70;99.90
51950;DHT22;37974;53.218;6.640;2023-08-31T06:10:24;11.80;99.90
51950;DHT22;37974;53.218;6.640;2023-08-31T06:12:50;11.90;99.90
51950;DHT22;37974;53.218;6.640;2023-08-31T06:15:17;12.00;99.90
51950;DHT22;37974;53.218;6.640;2023-08-31T06:17:43;12.10;99.90
51950;DHT22;37974;53.218;6.640;2023-08-31T06:20:09;12.20;99.90
51950;DHT22;37974;53.218;6.640;2023-08-31T06:22:35;12.30;99.90
51950;DHT22;37974;53.218;6.640;2023-08-31T06:25:01;12.40;99.90
51950;DHT22;37974;53.218;6.640;2023-08-31T06:27:29;12.50;99.90
51950;DHT22;37974;53.218;6.640;2023-08-31T06:29:55;12.70;99.90
51950;DHT22;37974;53.218;6.640;2023-08-31T06:32:21;12.80;99.90
51950;DHT22;37974;53.218;6.640;2023-08-31T06:34:48;12.90;99.90
51950;DHT22;37974;53.218;6.640;2023-08-31T06:37:14;12.90;99.90
51950;DHT22;37974;53.218;6.640;2023-08-31T06:39:40;13.00;99.90
51950;DHT22;37974;53.218;6.640;2023-08-31T06:42:06;13.10;99.90
51950;DHT22;37974;53.218;6.640;2023-08-31T06:44:32;13.20;99.90
51950;DHT22;37974;53.218;6.640;2023-08-31T06:46:58;13.30;99.90
51950;DHT22;37974;53.218;6.640;2023-08-31T06:49:24;13.40;99.90
51950;DHT22;37974;53.218;6.640;2023-08-31T06:51:49;13.50;99.90
51950;DHT22;37974;53.218;6.640;2023-08-31T06:54:15;13.50;99.90
51950;DHT22;37974;53.218;6.640;2023-08-31T06:56:41;13.60;99.90
51950;DHT22;37974;53.218;6.640;2023-08-31T06:59:07;13.70;99.90
51950;DHT22;37974;53.218;6.640;2023-08-31T07:01:33;13.70;99.90
51950;DHT22;37974;53.218;6.640;2023-08-31T07:03:58;13.80;99.90
51950;DHT22;37974;53.218;6.640;2023-08-31T07:06:24;14.00;99.90
51950;DHT22;37974;53.218;6.640;2023-08-31T07:08:50;14.10;99.90
51950;DHT22;37974;53.218;6.640;2023-08-31T07:11:17;14.20;99.90
51950;DHT22;37974;53.218;6.640;2023-08-31T07:13:43;14.30;99.90
51950;DHT22;37974;53.218;6.640;2023-08-31T07:16:08;14.40;99.90
51950;DHT22;37974;53.218;6.640;2023-08-31T07:18:35;14.50;99.90
51950;DHT22;37974;53.218;6.640;2023-08-31T07:21:01;14.60;99.90
51950;DHT22;37974;53.218;6.640;2023-08-31T07:23:27;14.60;99.90
51950;DHT22;37974;53.218;6.640;2023-08-31T07:25:56;14.70;99.90
51950;DHT22;37974;53.218;6.640;2023-08-31T07:28:23;14.70;99.90
51950;DHT22;37974;53.218;6.640;2023-08-31T07:30:49;14.80;99.90
51950;DHT22;37974;53.218;6.640;2023-08-31T07:33:14;14.90;99.90
51950;DHT22;37974;53.218;6.640;2023-08-31T07:35:40;14.90;99.90
51950;DHT22;37974;53.218;6.640;2023-08-31T07:38:06;14.90;99.90
51950;DHT22;37974;53.218;6.640;2023-08-31T07:40:31;15.10;99.90
51950;DHT22;37974;53.218;6.640;2023-08-31T07:42:57;15.10;99.90
51950;DHT22;37974;53.218;6.640;2023-08-31T07:45:23;15.20;99.90
51950;DHT22;37974;53.218;6.640;2023-08-31T07:47:49;15.30;99.90
51950;DHT22;37974;53.218;6.640;2023-08-31T07:50:14;15.40;99.90
51950;DHT22;37974;53.218;6.640;2023-08-31T07:52:40;15.40;99.90
51950;DHT22;37974;53.218;6.640;2023-08-31T07:55:06;15.50;99.90
51950;DHT22;37974;53.218;6.640;2023-08-31T07:57:32;15.70;99.90
51950;DHT22;37974;53.218;6.640;2023-08-31T07:59:57;15.70;99.90
51950;DHT22;37974;53.218;6.640;2023-08-31T08:02:23;15.80;99.90
51950;DHT22;37974;53.218;6.640;2023-08-31T08:04:49;15.90;99.90
51950;DHT22;37974;53.218;6.640;2023-08-31T08:07:15;16.10;99.90
51950;DHT22;37974;53.218;6.640;2023-08-31T08:09:41;16.10;99.90
51950;DHT22;37974;53.218;6.640;2023-08-31T08:12:07;16.20;99.90
51950;DHT22;37974;53.218;6.640;2023-08-31T08:14:33;16.20;99.90
51950;DHT22;37974;53.218;6.640;2023-08-31T08:16:59;16.30;99.90
51950;DHT22;37974;53.218;6.640;2023-08-31T08:19:25;16.30;99.90
51950;DHT22;37974;53.218;6.640;2023-08-31T08:21:51;16.40;99.90
51950;DHT22;37974;53.218;6.640;2023-08-31T08:24:17;16.50;99.90
51950;DHT22;37974;53.218;6.640;2023-08-31T08:26:43;16.50;99.90
51950;DHT22;37974;53.218;6.640;2023-08-31T08:29:09;16.60;99.90
51950;DHT22;37974;53.218;6.640;2023-08-31T08:31:34;16.60;99.90
51950;DHT22;37974;53.218;6.640;2023-08-31T08:34:00;16.70;99.90
51950;DHT22;37974;53.218;6.640;2023-08-31T08:36:26;16.80;99.90
51950;DHT22;37974;53.218;6.640;2023-08-31T08:38:52;16.80;99.90
51950;DHT22;37974;53.218;6.640;2023-08-31T08:41:23;16.90;99.90
51950;DHT22;37974;53.218;6.640;2023-08-31T08:43:51;16.90;99.90
51950;DHT22;37974;53.218;6.640;2023-08-31T08:46:17;16.90;99.90
51950;DHT22;37974;53.218;6.640;2023-08-31T08:48:44;16.90;99.90
51950;DHT22;37974;53.218;6.640;2023-08-31T08:51:11;16.90;99.90
51950;DHT22;37974;53.218;6.640;2023-08-31T08:53:37;17.00;99.90
51950;DHT22;37974;53.218;6.640;2023-08-31T08:56:04;17.20;99.90
51950;DHT22;37974;53.218;6.640;2023-08-31T08:58:30;17.30;99.90
51950;DHT22;37974;53.218;6.640;2023-08-31T09:00:56;17.30;99.90
51950;DHT22;37974;53.218;6.640;2023-08-31T09:03:23;17.30;99.90
51950;DHT22;37974;53.218;6.640;2023-08-31T09:05:50;17.30;99.90
51950;DHT22;37974;53.218;6.640;2023-08-31T09:08:16;17.30;99.90
51950;DHT22;37974;53.218;6.640;2023-08-31T09:10:43;17.30;99.90
51950;DHT22;37974;53.218;6.640;2023-08-31T09:13:14;17.40;99.90
51950;DHT22;37974;53.218;6.640;2023-08-31T09:15:48;17.60;99.90
51950;DHT22;37974;53.218;6.640;2023-08-31T09:18:28;17.70;99.90
51950;DHT22;37974;53.218;6.640;2023-08-31T09:20:55;17.40;99.90
51950;DHT22;37974;53.218;6.640;2023-08-31T09:23:24;16.90;99.90
51950;DHT22;37974;53.218;6.640;2023-08-31T09:25:52;16.40;99.90
51950;DHT22;37974;53.218;6.640;2023-08-31T09:28:23;16.10;99.90
51950;DHT22;37974;53.218;6.640;2023-08-31T09:30:50;15.80;99.90
51950;DHT22;37974;53.218;6.640;2023-08-31T09:33:18;15.80;99.90
51950;DHT22;37974;53.218;6.640;2023-08-31T09:35:59;15.80;99.90
51950;DHT22;37974;53.218;6.640;2023-08-31T09:38:25;16.00;99.90
51950;DHT22;37974;53.218;6.640;2023-08-31T09:40:51;16.30;99.90
51950;DHT22;37974;53.218;6.640;2023-08-31T09:43:20;16.60;99.90
51950;DHT22;37974;53.218;6.640;2023-08-31T09:45:47;16.90;99.90
51950;DHT22;37974;53.218;6.640;2023-08-31T09:48:15;17.20;99.90
51950;DHT22;37974;53.218;6.640;2023-08-31T09:50:43;17.50;99.90
51950;DHT22;37974;53.218;6.640;2023-08-31T09:53:10;17.80;99.90
51950;DHT22;37974;53.218;6.640;2023-08-31T09:55:39;18.10;99.90
51950;DHT22;37974;53.218;6.640;2023-08-31T09:58:07;18.20;99.90
51950;DHT22;37974;53.218;6.640;2023-08-31T10:00:36;18.10;99.90
51950;DHT22;37974;53.218;6.640;2023-08-31T10:03:05;17.80;99.90
51950;DHT22;37974;53.218;6.640;2023-08-31T10:05:32;17.50;99.90
51950;DHT22;37974;53.218;6.640;2023-08-31T10:07:58;17.30;99.90
51950;DHT22;37974;53.218;6.640;2023-08-31T10:10:27;17.40;99.90
51950;DHT22;37974;53.218;6.640;2023-08-31T10:12:54;17.50;99.90
51950;DHT22;37974;53.218;6.640;2023-08-31T10:15:20;17.70;99.90
51950;DHT22;37974;53.218;6.640;2023-08-31T10:17:46;17.80;99.90
51950;DHT22;37974;53.218;6.640;2023-08-31T10:20:14;17.80;99.90
51950;DHT22;37974;53.218;6.640;2023-08-31T10:22:40;17.90;99.90
51950;DHT22;37974;53.218;6.640;2023-08-31T10:25:07;17.80;99.90
51950;DHT22;37974;53.218;6.640;2023-08-31T10:27:43;17.50;99.90
51950;DHT22;37974;53.218;6.640;2023-08-31T10:43:53;17.40;99.90
51950;DHT22;37974;53.218;6.640;2023-08-31T10:46:33;17.80;99.90
51950;DHT22;37974;53.218;6.640;2023-08-31T10:49:32;18.10;99.90
51950;DHT22;37974;53.218;6.640;2023-08-31T10:52:19;18.40;99.90
51950;DHT22;37974;53.218;6.640;2023-08-31T10:54:51;18.70;99.90
51950;DHT22;37974;53.218;6.640;2023-08-31T10:57:29;19.00;99.90
51950;DHT22;37974;53.218;6.640;2023-08-31T10:59:55;19.10;99.90
51950;DHT22;37974;53.218;6.640;2023-08-31T11:02:47;19.10;99.90
51950;DHT22;37974;53.218;6.640;2023-08-31T11:05:14;18.70;99.90
51950;DHT22;37974;53.218;6.640;2023-08-31T11:07:44;18.30;99.90
51950;DHT22;37974;53.218;6.640;2023-08-31T11:12:53;17.60;99.90
51950;DHT22;37974;53.218;6.640;2023-08-31T11:15:39;17.40;99.90
51950;DHT22;37974;53.218;6.640;2023-08-31T11:18:11;17.30;99.90
51950;DHT22;37974;53.218;6.640;2023-08-31T11:20:43;17.40;99.90
51950;DHT22;37974;53.218;6.640;2023-08-31T11:23:10;17.70;99.90
51950;DHT22;37974;53.218;6.640;2023-08-31T11:25:36;18.00;99.90
51950;DHT22;37974;53.218;6.640;2023-08-31T11:28:03;18.30;99.90
51950;DHT22;37974;53.218;6.640;2023-08-31T11:30:37;18.50;99.90
51950;DHT22;37974;53.218;6.640;2023-08-31T11:33:04;18.90;99.90
51950;DHT22;37974;53.218;6.640;2023-08-31T11:35:37;19.10;99.90
51950;DHT22;37974;53.218;6.640;2023-08-31T11:38:06;19.40;99.90
51950;DHT22;37974;53.218;6.640;2023-08-31T11:40:32;19.50;99.90
51950;DHT22;37974;53.218;6.640;2023-08-31T11:42:58;19.30;99.90
51950;DHT22;37974;53.218;6.640;2023-08-31T11:45:36;19.20;99.90
51950;DHT22;37974;53.218;6.640;2023-08-31T11:48:11;19.10;99.90
51950;DHT22;37974;53.218;6.640;2023-08-31T11:50:46;18.70;99.90
51950;DHT22;37974;53.218;6.640;2023-08-31T11:53:15;18.70;99.90
51950;DHT22;37974;53.218;6.640;2023-08-31T11:55:51;18.50;99.90
51950;DHT22;37974;53.218;6.640;2023-08-31T11:58:17;18.20;99.90
51950;DHT22;37974;53.218;6.640;2023-08-31T12:00:43;17.90;99.90
51950;DHT22;37974;53.218;6.640;2023-08-31T12:03:10;17.40;99.90
51950;DHT22;37974;53.218;6.640;2023-08-31T12:05:46;16.70;99.90
51950;DHT22;37974;53.218;6.640;2023-08-31T12:08:12;16.20;99.90
51950;DHT22;37974;53.218;6.640;2023-08-31T12:10:41;15.80;99.90
51950;DHT22;37974;53.218;6.640;2023-08-31T12:13:13;15.70;99.90
51950;DHT22;37974;53.218;6.640;2023-08-31T12:15:57;15.70;99.90
51950;DHT22;37974;53.218;6.640;2023-08-31T12:18:22;15.80;99.90
51950;DHT22;37974;53.218;6.640;2023-08-31T12:20:52;16.10;99.90
51950;DHT22;37974;53.218;6.640;2023-08-31T12:23:18;16.30;99.90
51950;DHT22;37974;53.218;6.640;2023-08-31T12:26:10;16.40;99.90
51950;DHT22;37974;53.218;6.640;2023-08-31T12:29:09;16.50;99.90
51950;DHT22;37974;53.218;6.640;2023-08-31T12:31:36;16.20;99.90
51950;DHT22;37974;53.218;6.640;2023-08-31T12:37:25;16.30;99.90
51950;DHT22;37974;53.218;6.640;2023-08-31T12:40:02;16.20;99.90
51950;DHT22;37974;53.218;6.640;2023-08-31T12:42:52;16.20;99.90
51950;DHT22;37974;53.218;6.640;2023-08-31T12:45:23;16.20;99.90
51950;DHT22;37974;53.218;6.640;2023-08-31T12:47:49;16.20;99.90
51950;DHT22;37974;53.218;6.640;2023-08-31T12:50:15;16.30;99.90
51950;DHT22;37974;53.218;6.640;2023-08-31T12:52:59;16.40;99.90
51950;DHT22;37974;53.218;6.640;2023-08-31T12:55:25;16.70;99.90
51950;DHT22;37974;53.218;6.640;2023-08-31T12:57:54;16.90;99.90
51950;DHT22;37974;53.218;6.640;2023-08-31T13:00:20;17.10;99.90
51950;DHT22;37974;53.218;6.640;2023-08-31T13:02:58;17.20;99.90
51950;DHT22;37974;53.218;6.640;2023-08-31T13:05:40;17.20;99.90
51950;DHT22;37974;53.218;6.640;2023-08-31T13:08:07;17.30;99.90
51950;DHT22;37974;53.218;6.640;2023-08-31T13:10:39;17.40;99.90
51950;DHT22;37974;53.218;6.640;2023-08-31T13:13:04;17.50;99.90
51950;DHT22;37974;53.218;6.640;2023-08-31T13:15:32;17.60;99.90
51950;DHT22;37974;53.218;6.640;2023-08-31T13:17:58;17.70;99.90
51950;DHT22;37974;53.218;6.640;2023-08-31T13:20:24;17.90;99.90
51950;DHT22;37974;53.218;6.640;2023-08-31T13:22:50;18.00;99.90
51950;DHT22;37974;53.218;6.640;2023-08-31T13:25:28;18.10;99.90
51950;DHT22;37974;53.218;6.640;2023-08-31T13:27:54;18.00;99.90
51950;DHT22;37974;53.218;6.640;2023-08-31T13:30:20;17.90;99.90
51950;DHT22;37974;53.218;6.640;2023-08-31T13:32:46;17.90;99.90
51950;DHT22;37974;53.218;6.640;2023-08-31T13:35:12;17.80;99.90
51950;DHT22;37974;53.218;6.640;2023-08-31T13:37:38;17.80;99.90
51950;DHT22;37974;53.218;6.640;2023-08-31T13:40:04;17.90;99.90
51950;DHT22;37974;53.218;6.640;2023-08-31T13:42:36;18.00;99.90
51950;DHT22;37974;53.218;6.640;2023-08-31T13:47:57;18.20;99.90
51950;DHT22;37974;53.218;6.640;2023-08-31T13:50:25;17.60;99.90
51950;DHT22;37974;53.218;6.640;2023-08-31T13:52:51;17.50;99.90
51950;DHT22;37974;53.218;6.640;2023-08-31T13:55:17;17.40;99.90
51950;DHT22;37974;53.218;6.640;2023-08-31T13:57:43;17.30;99.90
51950;DHT22;37974;53.218;6.640;2023-08-31T14:00:09;17.40;99.90
51950;DHT22;37974;53.218;6.640;2023-08-31T14:02:36;17.60;99.90
51950;DHT22;37974;53.218;6.640;2023-08-31T14:05:03;17.90;99.90
51950;DHT22;37974;53.218;6.640;2023-08-31T14:07:29;18.10;99.90
51950;DHT22;37974;53.218;6.640;2023-08-31T14:09:55;18.20;99.90
51950;DHT22;37974;53.218;6.640;2023-08-31T14:12:20;18.20;99.90
51950;DHT22;37974;53.218;6.640;2023-08-31T14:14:47;18.20;99.90
51950;DHT22;37974;53.218;6.640;2023-08-31T14:17:13;18.00;99.90
51950;DHT22;37974;53.218;6.640;2023-08-31T14:19:39;17.90;99.90
51950;DHT22;37974;53.218;6.640;2023-08-31T14:22:05;17.80;99.90
51950;DHT22;37974;53.218;6.640;2023-08-31T14:24:31;17.60;99.90
51950;DHT22;37974;53.218;6.640;2023-08-31T14:26:57;17.60;99.90
51950;DHT22;37974;53.218;6.640;2023-08-31T14:29:23;17.50;99.90
51950;DHT22;37974;53.218;6.640;2023-08-31T14:31:49;17.50;99.90
51950;DHT22;37974;53.218;6.640;2023-08-31T14:34:14;17.40;99.90
51950;DHT22;37974;53.218;6.640;2023-08-31T14:36:40;17.40;99.90
51950;DHT22;37974;53.218;6.640;2023-08-31T14:39:06;17.50;99.90
51950;DHT22;37974;53.218;6.640;2023-08-31T14:41:32;17.50;99.90
51950;DHT22;37974;53.218;6.640;2023-08-31T14:43:57;17.60;99.90
51950;DHT22;37974;53.218;6.640;2023-08-31T14:46:23;17.60;99.90
51950;DHT22;37974;53.218;6.640;2023-08-31T14:48:50;17.70;99.90
51950;DHT22;37974;53.218;6.640;2023-08-31T14:51:16;17.80;99.90
51950;DHT22;37974;53.218;6.640;2023-08-31T14:53:42;18.00;99.90
51950;DHT22;37974;53.218;6.640;2023-08-31T14:56:08;18.10;99.90
51950;DHT22;37974;53.218;6.640;2023-08-31T14:58:34;18.30;99.90
51950;DHT22;37974;53.218;6.640;2023-08-31T15:01:00;18.40;99.90
51950;DHT22;37974;53.218;6.640;2023-08-31T15:03:26;18.30;99.90
51950;DHT22;37974;53.218;6.640;2023-08-31T15:05:52;18.30;99.90
51950;DHT22;37974;53.218;6.640;2023-08-31T15:08:18;18.20;99.90
51950;DHT22;37974;53.218;6.640;2023-08-31T15:10:44;18.20;99.90
51950;DHT22;37974;53.218;6.640;2023-08-31T15:13:09;18.10;99.90
51950;DHT22;37974;53.218;6.640;2023-08-31T15:15:35;17.90;99.90
51950;DHT22;37974;53.218;6.640;2023-08-31T15:18:01;17.90;99.90
51950;DHT22;37974;53.218;6.640;2023-08-31T15:20:27;17.80;99.90
51950;DHT22;37974;53.218;6.640;2023-08-31T15:22:54;17.80;99.90
51950;DHT22;37974;53.218;6.640;2023-08-31T15:25:19;17.80;99.90
51950;DHT22;37974;53.218;6.640;2023-08-31T15:27:45;17.90;99.90
51950;DHT22;37974;53.218;6.640;2023-08-31T15:30:11;18.00;99.90
51950;DHT22;37974;53.218;6.640;2023-08-31T15:32:37;18.20;99.90
51950;DHT22;37974;53.218;6.640;2023-08-31T15:35:04;18.40;99.90
51950;DHT22;37974;53.218;6.640;2023-08-31T15:37:30;18.40;99.90
51950;DHT22;37974;53.218;6.640;2023-08-31T15:39:59;18.60;99.90
51950;DHT22;37974;53.218;6.640;2023-08-31T15:42:28;18.70;99.90
51950;DHT22;37974;53.218;6.640;2023-08-31T15:44:54;18.80;99.90
51950;DHT22;37974;53.218;6.640;2023-08-31T15:47:21;18.80;99.90
51950;DHT22;37974;53.218;6.640;2023-08-31T15:49:47;18.70;99.90
51950;DHT22;37974;53.218;6.640;2023-08-31T15:52:15;18.80;99.90
51950;DHT22;37974;53.218;6.640;2023-08-31T15:54:40;18.80;99.90
51950;DHT22;37974;53.218;6.640;2023-08-31T15:57:06;18.90;99.90
51950;DHT22;37974;53.218;6.640;2023-08-31T15:59:34;19.00;99.90
51950;DHT22;37974;53.218;6.640;2023-08-31T16:02:00;19.00;99.90